Lowden, IA (52255)

5:33 AM CDT on May 24, 2015 (GMT -0500)
Center of Cedar County | | Change Station
CLOSE
Current Station
Personal Weather Station
Location: Tipton, IA
Elevation: 823 ft
Nearby Weather Stations

Elev 823 ft 41.77 °N, 91.13 °W | Updated 42 seconds ago

Rain
Rain
59.3 °F
Feels Like 59.3 °F
N
4.0
Wind Variable Wind from SSE
Gusts 4.0 mph

Today
High -- | Low -- °F
--% Chance of Precip.
Yesterday
High -- | Low -- °F
Precip. -- in
5:36 AM 8:25 PM
Waxing Crescent, 38% visible
Pressure 30.14 in
Visibility 10.0 miles
Clouds Few 5500 ft
Overcast 11000 ft
Dew Point 56 °F
Humidity 88%
Rainfall 0.02 in
Snow Depth Not available.
UV 0 out of 12
Pollen 8.60 out of 12
Air Quality Not available.
Flu Activity Sporadic
METAR KDVN 240952Z AUTO 13006KT 10SM -RA FEW055 OVC110 16/12 A3014 RMK AO2 SLP204 P0002 T01610117 $

More Conditions Fewer Conditions

Pressure 30.14 in
Visibility 10.0 miles
Clouds Few 5500 ft
Overcast 11000 ft
Dew Point 56 °F
Humidity 88%
Rainfall 0.02 in
Snow Depth Not available.
UV 0 out of 12
Pollen 8.60 out of 12
Air Quality Not available.
Flu Activity Sporadic
METAR KDVN 240952Z AUTO 13006KT 10SM -RA FEW055 OVC110 16/12 A3014 RMK AO2 SLP204 P0002 T01610117 $

More Conditions Fewer Conditions

10-Day Weather Forecast

Almanac

Astronomy

May. 24, 2015 Rise Set
Actual Time
Civil Twilight
Nautical Twilight
Astronomical Twilight
Moon
Length of Visible Light
Length of Day
Tomorrow will be .
, % of the Moon is Illuminated

Today's Extremes

State Highs State Lows

Community

WunderPhotos

Upload Photos

1,823,710 photos uploaded!

WunderBlogs® & News

Nearby

Air Quality

  Air Quality AQ Index Pollutant
Not available.

Snow Depth

Station Depth Elevation

Earthquake Activity

City Distance Mag. Time & Date
Minimum magnitude displayed is 2.5.

Coastal Water Temperatures

Place Temperature

Stations

Nearby Weather Stations

Station Location Temp. Windchill Dew Point Humidity Wind Precip. Elev Updated Type